sensor_id;sensor_type;location;lat;lon;timestamp;pressure;altitude;pressure_sealevel;temperature;humidity
18275;BME280;19470;49.322;7.218;2023-11-19T00:02:15;98558.94;;;15.42;96.75
18275;BME280;19470;49.322;7.218;2023-11-19T00:04:42;98571.91;;;15.64;94.44
18275;BME280;19470;49.322;7.218;2023-11-19T00:07:09;98569.53;;;15.07;98.43
18275;BME280;19470;49.322;7.218;2023-11-19T00:09:37;98561.81;;;15.50;95.23
18275;BME280;19470;49.322;7.218;2023-11-19T00:12:05;98544.97;;;15.55;95.12
18275;BME280;19470;49.322;7.218;2023-11-19T00:14:33;98547.44;;;15.91;92.04
18275;BME280;19470;49.322;7.218;2023-11-19T00:17:00;98533.03;;;15.87;92.79
18275;BME280;19470;49.322;7.218;2023-11-19T00:19:27;98536.03;;;16.09;90.43
18275;BME280;19470;49.322;7.218;2023-11-19T00:21:53;98538.31;;;15.97;91.22
18275;BME280;19470;49.322;7.218;2023-11-19T00:24:20;98543.34;;;15.98;91.91
18275;BME280;19470;49.322;7.218;2023-11-19T00:26:46;98546.81;;;15.99;92.34
18275;BME280;19470;49.322;7.218;2023-11-19T00:29:13;98548.97;;;15.97;92.24
18275;BME280;19470;49.322;7.218;2023-11-19T00:35:01;98544.91;;;15.70;93.86
18275;BME280;19470;49.322;7.218;2023-11-19T00:37:28;98538.28;;;15.63;93.94
18275;BME280;19470;49.322;7.218;2023-11-19T00:39:54;98522.31;;;15.52;95.29
18275;BME280;19470;49.322;7.218;2023-11-19T00:42:21;98529.41;;;15.72;92.36
18275;BME280;19470;49.322;7.218;2023-11-19T00:44:49;98527.31;;;16.27;90.39
18275;BME280;19470;49.322;7.218;2023-11-19T00:47:15;98528.03;;;16.38;89.97
18275;BME280;19470;49.322;7.218;2023-11-19T00:49:42;98539.25;;;15.32;96.33
18275;BME280;19470;49.322;7.218;2023-11-19T00:52:10;98542.66;;;15.88;93.93
18275;BME280;19470;49.322;7.218;2023-11-19T00:54:37;98543.50;;;15.33;98.38
18275;BME280;19470;49.322;7.218;2023-11-19T00:57:03;98546.78;;;16.04;92.83
18275;BME280;19470;49.322;7.218;2023-11-19T00:59:31;98532.47;;;15.90;95.80
18275;BME280;19470;49.322;7.218;2023-11-19T01:01:57;98536.81;;;15.86;95.69
18275;BME280;19470;49.322;7.218;2023-11-19T01:04:28;98531.31;;;15.22;97.80
18275;BME280;19470;49.322;7.218;2023-11-19T01:06:54;98517.28;;;15.46;100.00
18275;BME280;19470;49.322;7.218;2023-11-19T01:09:22;98514.44;;;15.32;100.00
18275;BME280;19470;49.322;7.218;2023-11-19T01:11:49;98514.09;;;15.44;98.84
18275;BME280;19470;49.322;7.218;2023-11-19T01:14:16;98509.75;;;15.08;100.00
18275;BME280;19470;49.322;7.218;2023-11-19T01:16:42;98512.91;;;15.21;100.00
18275;BME280;19470;49.322;7.218;2023-11-19T01:19:09;98501.38;;;16.04;95.85
18275;BME280;19470;49.322;7.218;2023-11-19T01:21:36;98498.91;;;16.36;93.18
18275;BME280;19470;49.322;7.218;2023-11-19T01:24:03;98499.78;;;16.03;95.78
18275;BME280;19470;49.322;7.218;2023-11-19T01:26:35;98506.63;;;16.14;95.22
18275;BME280;19470;49.322;7.218;2023-11-19T01:29:02;98503.13;;;16.19;95.00
18275;BME280;19470;49.322;7.218;2023-11-19T01:31:29;98504.47;;;16.16;96.22
18275;BME280;19470;49.322;7.218;2023-11-19T01:33:57;98505.50;;;16.20;96.66
18275;BME280;19470;49.322;7.218;2023-11-19T01:36:23;98498.44;;;15.76;100.00
18275;BME280;19470;49.322;7.218;2023-11-19T01:38:50;98495.38;;;15.88;97.54
18275;BME280;19470;49.322;7.218;2023-11-19T01:41:16;98498.78;;;15.94;97.79
18275;BME280;19470;49.322;7.218;2023-11-19T01:43:44;98510.16;;;16.09;97.73
18275;BME280;19470;49.322;7.218;2023-11-19T01:46:12;98508.63;;;15.98;99.81
18275;BME280;19470;49.322;7.218;2023-11-19T01:48:43;98489.78;;;15.84;99.35
18275;BME280;19470;49.322;7.218;2023-11-19T01:51:11;98481.06;;;15.74;100.00
18275;BME280;19470;49.322;7.218;2023-11-19T01:53:42;98481.03;;;16.08;98.10
18275;BME280;19470;49.322;7.218;2023-11-19T01:56:12;98471.97;;;15.75;99.85
18275;BME280;19470;49.322;7.218;2023-11-19T01:58:40;98468.94;;;16.40;97.34
18275;BME280;19470;49.322;7.218;2023-11-19T02:01:09;98473.03;;;16.56;95.07
18275;BME280;19470;49.322;7.218;2023-11-19T02:03:37;98482.72;;;15.99;100.00
18275;BME280;19470;49.322;7.218;2023-11-19T02:06:05;98469.94;;;15.67;100.00
18275;BME280;19470;49.322;7.218;2023-11-19T02:08:33;98459.00;;;15.63;100.00
18275;BME280;19470;49.322;7.218;2023-11-19T02:10:59;98476.44;;;15.84;100.00
18275;BME280;19470;49.322;7.218;2023-11-19T02:13:27;98468.00;;;16.30;98.57
18275;BME280;19470;49.322;7.218;2023-11-19T02:15:54;98458.56;;;16.14;100.00
18275;BME280;19470;49.322;7.218;2023-11-19T02:18:24;98468.94;;;16.40;96.93
18275;BME280;19470;49.322;7.218;2023-11-19T02:20:53;98465.00;;;16.08;100.00
18275;BME280;19470;49.322;7.218;2023-11-19T02:23:20;98465.34;;;15.72;100.00
18275;BME280;19470;49.322;7.218;2023-11-19T02:25:57;98469.84;;;15.77;100.00
18275;BME280;19470;49.322;7.218;2023-11-19T02:28:27;98462.44;;;15.98;100.00
18275;BME280;19470;49.322;7.218;2023-11-19T02:30:54;98462.44;;;15.69;100.00
18275;BME280;19470;49.322;7.218;2023-11-19T02:33:20;98444.03;;;15.96;100.00
18275;BME280;19470;49.322;7.218;2023-11-19T02:35:48;98434.94;;;15.68;100.00
18275;BME280;19470;49.322;7.218;2023-11-19T02:38:14;98431.38;;;16.31;100.00
18275;BME280;19470;49.322;7.218;2023-11-19T02:40:41;98434.44;;;16.19;100.00
18275;BME280;19470;49.322;7.218;2023-11-19T02:43:07;98445.69;;;15.58;100.00
18275;BME280;19470;49.322;7.218;2023-11-19T02:45:36;98431.81;;;15.56;100.00
18275;BME280;19470;49.322;7.218;2023-11-19T02:48:02;98433.47;;;15.86;100.00
18275;BME280;19470;49.322;7.218;2023-11-19T02:50:31;98421.50;;;15.78;100.00
18275;BME280;19470;49.322;7.218;2023-11-19T02:52:58;98433.88;;;16.22;100.00
18275;BME280;19470;49.322;7.218;2023-11-19T02:55:26;98442.41;;;16.24;100.00
18275;BME280;19470;49.322;7.218;2023-11-19T02:57:55;98443.94;;;16.06;100.00
18275;BME280;19470;49.322;7.218;2023-11-19T03:00:24;98448.25;;;16.26;100.00
18275;BME280;19470;49.322;7.218;2023-11-19T03:02:59;98437.78;;;15.43;100.00
18275;BME280;19470;49.322;7.218;2023-11-19T03:05:25;98438.97;;;15.95;100.00
18275;BME280;19470;49.322;7.218;2023-11-19T03:07:55;98432.75;;;16.71;100.00
18275;BME280;19470;49.322;7.218;2023-11-19T03:10:22;98421.72;;;16.11;100.00
18275;BME280;19470;49.322;7.218;2023-11-19T03:12:49;98423.69;;;16.00;100.00
18275;BME280;19470;49.322;7.218;2023-11-19T03:15:16;98438.16;;;15.94;100.00
18275;BME280;19470;49.322;7.218;2023-11-19T03:17:43;98431.06;;;16.08;100.00
18275;BME280;19470;49.322;7.218;2023-11-19T03:20:11;98420.13;;;16.10;100.00
18275;BME280;19470;49.322;7.218;2023-11-19T03:22:41;98424.63;;;16.15;100.00
18275;BME280;19470;49.322;7.218;2023-11-19T03:25:08;98421.91;;;16.63;100.00
18275;BME280;19470;49.322;7.218;2023-11-19T03:27:34;98426.69;;;15.94;100.00
18275;BME280;19470;49.322;7.218;2023-11-19T03:30:02;98423.84;;;16.57;100.00
18275;BME280;19470;49.322;7.218;2023-11-19T03:32:30;98420.38;;;16.08;100.00
18275;BME280;19470;49.322;7.218;2023-11-19T03:34:56;98422.41;;;16.65;100.00
18275;BME280;19470;49.322;7.218;2023-11-19T03:37:25;98423.84;;;16.09;100.00
18275;BME280;19470;49.322;7.218;2023-11-19T03:39:51;98422.84;;;16.53;100.00
18275;BME280;19470;49.322;7.218;2023-11-19T03:42:19;98427.16;;;16.49;100.00
18275;BME280;19470;49.322;7.218;2023-11-19T03:44:45;98420.44;;;16.75;100.00
18275;BME280;19470;49.322;7.218;2023-11-19T03:47:12;98416.09;;;16.79;100.00
18275;BME280;19470;49.322;7.218;2023-11-19T03:49:38;98415.50;;;16.82;100.00
18275;BME280;19470;49.322;7.218;2023-11-19T03:52:05;98409.94;;;17.17;100.00
18275;BME280;19470;49.322;7.218;2023-11-19T03:54:33;98419.84;;;16.78;100.00
18275;BME280;19470;49.322;7.218;2023-11-19T03:56:59;98414.50;;;16.78;100.00
18275;BME280;19470;49.322;7.218;2023-11-19T03:59:28;98415.09;;;16.27;100.00
18275;BME280;19470;49.322;7.218;2023-11-19T04:01:54;98427.72;;;17.07;100.00
18275;BME280;19470;49.322;7.218;2023-11-19T04:04:21;98402.56;;;17.27;100.00
18275;BME280;19470;49.322;7.218;2023-11-19T04:06:48;98407.28;;;16.98;100.00
18275;BME280;19470;49.322;7.218;2023-11-19T04:09:15;98407.94;;;17.08;100.00
18275;BME280;19470;49.322;7.218;2023-11-19T04:11:42;98413.22;;;17.14;100.00
18275;BME280;19470;49.322;7.218;2023-11-19T04:14:09;98412.13;;;17.15;100.00
18275;BME280;19470;49.322;7.218;2023-11-19T04:16:36;98419.72;;;16.22;100.00
18275;BME280;19470;49.322;7.218;2023-11-19T04:19:02;98419.78;;;16.83;100.00
18275;BME280;19470;49.322;7.218;2023-11-19T04:21:29;98412.06;;;17.01;100.00
18275;BME280;19470;49.322;7.218;2023-11-19T04:23:56;98415.91;;;16.04;100.00
18275;BME280;19470;49.322;7.218;2023-11-19T04:26:22;98413.22;;;16.95;100.00
18275;BME280;19470;49.322;7.218;2023-11-19T04:28:50;98402.22;;;16.77;100.00
18275;BME280;19470;49.322;7.218;2023-11-19T04:31:16;98412.34;;;16.80;100.00
18275;BME280;19470;49.322;7.218;2023-11-19T04:33:43;98403.34;;;16.71;100.00
18275;BME280;19470;49.322;7.218;2023-11-19T04:36:10;98402.78;;;17.12;100.00
18275;BME280;19470;49.322;7.218;2023-11-19T04:38:39;98403.13;;;16.68;100.00
18275;BME280;19470;49.322;7.218;2023-11-19T04:41:06;98407.34;;;16.74;100.00
18275;BME280;19470;49.322;7.218;2023-11-19T04:43:33;98414.16;;;16.85;100.00
18275;BME280;19470;49.322;7.218;2023-11-19T04:46:03;98411.03;;;16.97;100.00
18275;BME280;19470;49.322;7.218;2023-11-19T04:48:29;98404.53;;;16.84;100.00
18275;BME280;19470;49.322;7.218;2023-11-19T04:50:56;98421.03;;;16.67;100.00
18275;BME280;19470;49.322;7.218;2023-11-19T04:53:23;98415.03;;;16.99;100.00
18275;BME280;19470;49.322;7.218;2023-11-19T04:55:49;98415.66;;;16.91;100.00
18275;BME280;19470;49.322;7.218;2023-11-19T04:58:16;98415.81;;;17.00;100.00
18275;BME280;19470;49.322;7.218;2023-11-19T05:00:42;98414.03;;;16.71;100.00
18275;BME280;19470;49.322;7.218;2023-11-19T05:03:10;98405.53;;;17.07;100.00
18275;BME280;19470;49.322;7.218;2023-11-19T05:05:36;98418.63;;;17.60;100.00
18275;BME280;19470;49.322;7.218;2023-11-19T05:08:03;98401.16;;;17.62;100.00
18275;BME280;19470;49.322;7.218;2023-11-19T05:10:30;98392.44;;;17.57;100.00
18275;BME280;19470;49.322;7.218;2023-11-19T05:12:57;98392.53;;;17.52;100.00
18275;BME280;19470;49.322;7.218;2023-11-19T05:15:23;98397.78;;;17.24;100.00
18275;BME280;19470;49.322;7.218;2023-11-19T05:17:50;98392.94;;;17.26;100.00
18275;BME280;19470;49.322;7.218;2023-11-19T05:20:18;98405.69;;;16.97;100.00
18275;BME280;19470;49.322;7.218;2023-11-19T05:22:44;98403.94;;;17.57;100.00
18275;BME280;19470;49.322;7.218;2023-11-19T05:25:11;98400.91;;;16.94;100.00
18275;BME280;19470;49.322;7.218;2023-11-19T05:27:37;98393.75;;;17.41;100.00
18275;BME280;19470;49.322;7.218;2023-11-19T05:30:05;98406.78;;;17.15;100.00
18275;BME280;19470;49.322;7.218;2023-11-19T05:32:32;98408.28;;;17.53;100.00
18275;BME280;19470;49.322;7.218;2023-11-19T05:34:59;98407.47;;;17.20;100.00
18275;BME280;19470;49.322;7.218;2023-11-19T05:37:27;98410.78;;;17.31;100.00
18275;BME280;19470;49.322;7.218;2023-11-19T05:39:53;98411.97;;;17.57;100.00
18275;BME280;19470;49.322;7.218;2023-11-19T05:42:20;98412.97;;;17.29;100.00
18275;BME280;19470;49.322;7.218;2023-11-19T05:44:46;98419.47;;;17.42;100.00
18275;BME280;19470;49.322;7.218;2023-11-19T05:47:13;98415.34;;;17.96;100.00
18275;BME280;19470;49.322;7.218;2023-11-19T05:49:39;98408.22;;;17.72;100.00
18275;BME280;19470;49.322;7.218;2023-11-19T05:52:06;98403.53;;;17.97;100.00
18275;BME280;19470;49.322;7.218;2023-11-19T05:54:36;98417.72;;;17.83;100.00
18275;BME280;19470;49.322;7.218;2023-11-19T05:57:03;98425.28;;;17.95;100.00
18275;BME280;19470;49.322;7.218;2023-11-19T05:59:30;98409.75;;;17.78;100.00
18275;BME280;19470;49.322;7.218;2023-11-19T06:01:58;98412.75;;;17.91;100.00
18275;BME280;19470;49.322;7.218;2023-11-19T06:04:25;98417.13;;;17.86;100.00
18275;BME280;19470;49.322;7.218;2023-11-19T06:06:51;98412.78;;;18.18;100.00
18275;BME280;19470;49.322;7.218;2023-11-19T06:09:20;98418.72;;;18.43;99.51
18275;BME280;19470;49.322;7.218;2023-11-19T06:11:49;98414.97;;;18.16;100.00
18275;BME280;19470;49.322;7.218;2023-11-19T06:14:16;98423.22;;;17.41;100.00
18275;BME280;19470;49.322;7.218;2023-11-19T06:16:42;98421.91;;;17.90;100.00
18275;BME280;19470;49.322;7.218;2023-11-19T06:19:09;98411.09;;;18.36;100.00
18275;BME280;19470;49.322;7.218;2023-11-19T06:21:37;98411.25;;;17.52;100.00
18275;BME280;19470;49.322;7.218;2023-11-19T06:24:04;98412.09;;;17.66;100.00
18275;BME280;19470;49.322;7.218;2023-11-19T06:26:30;98419.56;;;17.36;100.00
18275;BME280;19470;49.322;7.218;2023-11-19T06:28:58;98417.34;;;18.04;100.00
18275;BME280;19470;49.322;7.218;2023-11-19T06:31:25;98417.13;;;17.86;100.00
18275;BME280;19470;49.322;7.218;2023-11-19T06:33:52;98424.38;;;18.00;100.00
18275;BME280;19470;49.322;7.218;2023-11-19T06:36:19;98426.81;;;17.82;100.00
18275;BME280;19470;49.322;7.218;2023-11-19T06:38:46;98441.38;;;18.09;100.00
18275;BME280;19470;49.322;7.218;2023-11-19T06:41:13;98439.44;;;17.30;100.00
18275;BME280;19470;49.322;7.218;2023-11-19T06:43:39;98440.91;;;16.85;100.00
18275;BME280;19470;49.322;7.218;2023-11-19T06:46:14;98449.59;;;17.66;100.00
18275;BME280;19470;49.322;7.218;2023-11-19T06:48:41;98447.56;;;17.58;100.00
18275;BME280;19470;49.322;7.218;2023-11-19T06:51:09;98440.22;;;17.82;100.00
18275;BME280;19470;49.322;7.218;2023-11-19T06:53:35;98448.09;;;18.06;100.00
18275;BME280;19470;49.322;7.218;2023-11-19T06:56:02;98434.19;;;17.91;100.00
18275;BME280;19470;49.322;7.218;2023-11-19T06:58:30;98446.28;;;17.74;100.00
18275;BME280;19470;49.322;7.218;2023-11-19T07:00:57;98441.16;;;17.40;100.00
18275;BME280;19470;49.322;7.218;2023-11-19T07:03:25;98448.69;;;17.90;100.00
18275;BME280;19470;49.322;7.218;2023-11-19T07:05:51;98452.25;;;17.66;100.00
18275;BME280;19470;49.322;7.218;2023-11-19T07:08:18;98460.97;;;17.91;100.00
18275;BME280;19470;49.322;7.218;2023-11-19T07:10:44;98456.19;;;17.36;100.00
18275;BME280;19470;49.322;7.218;2023-11-19T07:13:12;98483.56;;;17.33;100.00
18275;BME280;19470;49.322;7.218;2023-11-19T07:15:39;98477.03;;;17.58;100.00
18275;BME280;19470;49.322;7.218;2023-11-19T07:18:05;98482.06;;;17.08;100.00
18275;BME280;19470;49.322;7.218;2023-11-19T07:20:33;98481.59;;;17.38;100.00
18275;BME280;19470;49.322;7.218;2023-11-19T07:23:00;98477.13;;;18.46;100.00
18275;BME280;19470;49.322;7.218;2023-11-19T07:25:26;98479.66;;;18.09;100.00
18275;BME280;19470;49.322;7.218;2023-11-19T07:27:53;98497.50;;;17.49;100.00
18275;BME280;19470;49.322;7.218;2023-11-19T07:30:19;98483.59;;;17.84;100.00
18275;BME280;19470;49.322;7.218;2023-11-19T07:32:46;98496.41;;;17.69;100.00
18275;BME280;19470;49.322;7.218;2023-11-19T07:35:12;98505.22;;;17.36;100.00
18275;BME280;19470;49.322;7.218;2023-11-19T07:37:40;98493.78;;;18.15;100.00
18275;BME280;19470;49.322;7.218;2023-11-19T07:40:08;98492.91;;;17.87;100.00
18275;BME280;19470;49.322;7.218;2023-11-19T07:42:36;98499.41;;;18.00;100.00
18275;BME280;19470;49.322;7.218;2023-11-19T07:45:04;98493.81;;;18.43;100.00
18275;BME280;19470;49.322;7.218;2023-11-19T07:47:30;98497.47;;;17.68;100.00
18275;BME280;19470;49.322;7.218;2023-11-19T07:49:57;98477.50;;;18.67;100.00
18275;BME280;19470;49.322;7.218;2023-11-19T07:52:23;98485.66;;;18.48;100.00
18275;BME280;19470;49.322;7.218;2023-11-19T07:54:51;98496.03;;;17.94;100.00
18275;BME280;19470;49.322;7.218;2023-11-19T07:57:18;98495.03;;;17.71;100.00
18275;BME280;19470;49.322;7.218;2023-11-19T07:59:45;98500.41;;;18.78;100.00
18275;BME280;19470;49.322;7.218;2023-11-19T08:02:11;98505.44;;;19.07;100.00
18275;BME280;19470;49.322;7.218;2023-11-19T08:04:38;98507.91;;;19.03;100.00
18275;BME280;19470;49.322;7.218;2023-11-19T08:07:09;98502.25;;;18.50;100.00
18275;BME280;19470;49.322;7.218;2023-11-19T08:09:36;98509.50;;;18.35;100.00
18275;BME280;19470;49.322;7.218;2023-11-19T08:12:06;98512.88;;;18.55;100.00
18275;BME280;19470;49.322;7.218;2023-11-19T08:14:34;98505.94;;;18.40;100.00
18275;BME280;19470;49.322;7.218;2023-11-19T08:17:00;98515.56;;;18.41;100.00
18275;BME280;19470;49.322;7.218;2023-11-19T08:19:27;98506.22;;;19.07;100.00
18275;BME280;19470;49.322;7.218;2023-11-19T08:21:54;98494.78;;;18.19;100.00
18275;BME280;19470;49.322;7.218;2023-11-19T08:24:21;98500.97;;;18.47;100.00
18275;BME280;19470;49.322;7.218;2023-11-19T08:26:48;98513.69;;;18.97;100.00
18275;BME280;19470;49.322;7.218;2023-11-19T08:29:16;98519.84;;;18.56;100.00
18275;BME280;19470;49.322;7.218;2023-11-19T08:31:43;98525.97;;;19.25;98.78
18275;BME280;19470;49.322;7.218;2023-11-19T08:34:10;98521.94;;;17.99;100.00
18275;BME280;19470;49.322;7.218;2023-11-19T08:36:37;98513.72;;;19.19;99.25
18275;BME280;19470;49.322;7.218;2023-11-19T08:39:04;98524.66;;;19.23;98.48
18275;BME280;19470;49.322;7.218;2023-11-19T08:41:30;98521.88;;;19.28;100.00
18275;BME280;19470;49.322;7.218;2023-11-19T08:43:57;98526.50;;;18.72;100.00
18275;BME280;19470;49.322;7.218;2023-11-19T08:46:25;98525.81;;;19.44;97.68
18275;BME280;19470;49.322;7.218;2023-11-19T08:48:52;98529.97;;;18.86;100.00
18275;BME280;19470;49.322;7.218;2023-11-19T08:51:21;98536.16;;;18.73;100.00
18275;BME280;19470;49.322;7.218;2023-11-19T08:53:48;98531.53;;;19.65;96.00
18275;BME280;19470;49.322;7.218;2023-11-19T08:56:14;98528.47;;;19.58;96.85
18275;BME280;19470;49.322;7.218;2023-11-19T08:58:41;98525.19;;;19.47;94.79
18275;BME280;19470;49.322;7.218;2023-11-19T09:01:07;98528.38;;;18.58;100.00
18275;BME280;19470;49.322;7.218;2023-11-19T09:03:36;98525.22;;;18.83;99.37
18275;BME280;19470;49.322;7.218;2023-11-19T09:06:03;98545.47;;;18.62;100.00
18275;BME280;19470;49.322;7.218;2023-11-19T09:08:29;98534.00;;;19.39;96.48
18275;BME280;19470;49.322;7.218;2023-11-19T09:10:56;98546.56;;;19.52;94.10
18275;BME280;19470;49.322;7.218;2023-11-19T09:13:23;98551.03;;;19.21;95.29
18275;BME280;19470;49.322;7.218;2023-11-19T09:15:49;98545.09;;;19.46;92.63
18275;BME280;19470;49.322;7.218;2023-11-19T09:18:16;98551.44;;;19.14;92.02
18275;BME280;19470;49.322;7.218;2023-11-19T09:20:44;98563.19;;;19.90;88.42
18275;BME280;19470;49.322;7.218;2023-11-19T09:23:10;98557.19;;;19.94;87.24
18275;BME280;19470;49.322;7.218;2023-11-19T09:25:37;98538.69;;;19.92;87.97
18275;BME280;19470;49.322;7.218;2023-11-19T09:28:04;98539.78;;;21.59;80.79
18275;BME280;19470;49.322;7.218;2023-11-19T09:30:30;98540.56;;;19.69;90.39
18275;BME280;19470;49.322;7.218;2023-11-19T09:32:59;98533.97;;;19.03;91.61
18275;BME280;19470;49.322;7.218;2023-11-19T09:35:25;98549.00;;;20.21;85.97
18275;BME280;19470;49.322;7.218;2023-11-19T09:37:53;98545.59;;;20.07;84.24
18275;BME280;19470;49.322;7.218;2023-11-19T09:40:20;98542.28;;;19.87;84.24
18275;BME280;19470;49.322;7.218;2023-11-19T09:42:47;98541.81;;;19.63;86.29
18275;BME280;19470;49.322;7.218;2023-11-19T09:45:15;98544.84;;;19.34;87.97
18275;BME280;19470;49.322;7.218;2023-11-19T09:47:43;98542.34;;;19.96;85.79
18275;BME280;19470;49.322;7.218;2023-11-19T09:50:14;98555.84;;;19.82;86.61
18275;BME280;19470;49.322;7.218;2023-11-19T09:52:42;98551.72;;;19.76;88.41
18275;BME280;19470;49.322;7.218;2023-11-19T09:55:10;98524.22;;;19.79;89.25
18275;BME280;19470;49.322;7.218;2023-11-19T09:57:38;98521.16;;;19.36;88.80
18275;BME280;19470;49.322;7.218;2023-11-19T10:00:06;98512.84;;;20.05;86.14
18275;BME280;19470;49.322;7.218;2023-11-19T10:02:33;98526.06;;;20.55;81.36
18275;BME280;19470;49.322;7.218;2023-11-19T10:05:04;98526.75;;;19.26;87.47
18275;BME280;19470;49.322;7.218;2023-11-19T10:07:30;98496.16;;;19.13;88.59
18275;BME280;19470;49.322;7.218;2023-11-19T10:09:58;98536.38;;;19.77;85.09
18275;BME280;19470;49.322;7.218;2023-11-19T10:12:27;98525.78;;;20.03;83.00
18275;BME280;19470;49.322;7.218;2023-11-19T10:14:56;98533.09;;;19.44;85.88
18275;BME280;19470;49.322;7.218;2023-11-19T10:17:27;98521.69;;;20.36;79.13
18275;BME280;19470;49.322;7.218;2023-11-19T10:19:54;98518.22;;;19.82;83.33
18275;BME280;19470;49.322;7.218;2023-11-19T10:22:22;98531.19;;;18.80;85.17
18275;BME280;19470;49.322;7.218;2023-11-19T10:24:49;98518.00;;;20.24;77.87
18275;BME280;19470;49.322;7.218;2023-11-19T10:27:15;98527.31;;;20.97;73.77
18275;BME280;19470;49.322;7.218;2023-11-19T10:29:45;98531.53;;;20.41;73.80
18275;BME280;19470;49.322;7.218;2023-11-19T10:32:12;98523.66;;;19.69;75.69
18275;BME280;19470;49.322;7.218;2023-11-19T10:34:39;98524.34;;;21.25;68.33
18275;BME280;19470;49.322;7.218;2023-11-19T10:37:06;98518.31;;;22.14;64.77
18275;BME280;19470;49.322;7.218;2023-11-19T10:39:51;98536.09;;;20.40;67.72
18275;BME280;19470;49.322;7.218;2023-11-19T10:42:19;98525.50;;;21.32;65.17
18275;BME280;19470;49.322;7.218;2023-11-19T10:44:47;98535.91;;;20.59;67.14
18275;BME280;19470;49.322;7.218;2023-11-19T10:47:14;98513.47;;;21.38;65.07
18275;BME280;19470;49.322;7.218;2023-11-19T10:49:42;98509.41;;;20.92;66.94
18275;BME280;19470;49.322;7.218;2023-11-19T10:52:11;98520.59;;;21.43;65.78
18275;BME280;19470;49.322;7.218;2023-11-19T10:54:44;98489.81;;;21.87;62.96
18275;BME280;19470;49.322;7.218;2023-11-19T10:57:12;98513.75;;;20.31;67.16
18275;BME280;19470;49.322;7.218;2023-11-19T10:59:46;98470.44;;;21.94;63.30
18275;BME280;19470;49.322;7.218;2023-11-19T11:02:16;98482.81;;;23.31;58.75
18275;BME280;19470;49.322;7.218;2023-11-19T11:04:46;98484.31;;;23.19;58.56
18275;BME280;19470;49.322;7.218;2023-11-19T11:07:14;98479.38;;;21.08;64.95
18275;BME280;19470;49.322;7.218;2023-11-19T11:09:42;98480.94;;;22.42;60.64
18275;BME280;19470;49.322;7.218;2023-11-19T11:12:09;98484.13;;;23.04;60.04
18275;BME280;19470;49.322;7.218;2023-11-19T11:14:37;98491.31;;;22.61;59.81
18275;BME280;19470;49.322;7.218;2023-11-19T11:17:08;98488.25;;;21.08;64.19
18275;BME280;19470;49.322;7.218;2023-11-19T11:19:36;98478.69;;;20.93;66.66
18275;BME280;19470;49.322;7.218;2023-11-19T11:22:04;98490.66;;;19.99;67.74
18275;BME280;19470;49.322;7.218;2023-11-19T11:24:45;98472.25;;;21.03;65.33
18275;BME280;19470;49.322;7.218;2023-11-19T11:27:40;98473.31;;;20.93;65.58
18275;BME280;19470;49.322;7.218;2023-11-19T11:30:19;98478.13;;;21.49;62.99
18275;BME280;19470;49.322;7.218;2023-11-19T11:32:55;98479.34;;;20.42;63.80
18275;BME280;19470;49.322;7.218;2023-11-19T11:35:32;98485.78;;;19.56;66.52
18275;BME280;19470;49.322;7.218;2023-11-19T11:38:06;98501.84;;;20.15;63.97
18275;BME280;19470;49.322;7.218;2023-11-19T11:40:33;98497.00;;;19.36;65.30
18275;BME280;19470;49.322;7.218;2023-11-19T11:43:01;98495.13;;;19.23;64.98
18275;BME280;19470;49.322;7.218;2023-11-19T11:45:37;98490.56;;;20.13;63.02
18275;BME280;19470;49.322;7.218;2023-11-19T11:48:12;98495.34;;;21.04;60.25
18275;BME280;19470;49.322;7.218;2023-11-19T11:50:53;98498.69;;;20.22;60.48
18275;BME280;19470;49.322;7.218;2023-11-19T11:53:21;98496.13;;;19.63;63.53
18275;BME280;19470;49.322;7.218;2023-11-19T11:55:56;98478.91;;;19.28;64.30
18275;BME280;19470;49.322;7.218;2023-11-19T11:58:32;98477.53;;;19.98;62.44
18275;BME280;19470;49.322;7.218;2023-11-19T12:01:01;98471.09;;;20.38;61.26
18275;BME280;19470;49.322;7.218;2023-11-19T12:03:32;98474.72;;;20.82;59.89
18275;BME280;19470;49.322;7.218;2023-11-19T12:05:59;98471.78;;;21.27;56.10
18275;BME280;19470;49.322;7.218;2023-11-19T12:08:27;98476.09;;;21.46;56.66
18275;BME280;19470;49.322;7.218;2023-11-19T12:10:56;98439.31;;;22.05;56.08
18275;BME280;19470;49.322;7.218;2023-11-19T12:13:25;98452.41;;;21.68;55.79
18275;BME280;19470;49.322;7.218;2023-11-19T12:16:07;98445.50;;;22.06;56.34
18275;BME280;19470;49.322;7.218;2023-11-19T12:18:36;98471.47;;;21.37;57.16
18275;BME280;19470;49.322;7.218;2023-11-19T12:21:05;98456.56;;;21.75;56.79
18275;BME280;19470;49.322;7.218;2023-11-19T12:23:34;98449.41;;;21.70;57.68
18275;BME280;19470;49.322;7.218;2023-11-19T12:26:01;98456.09;;;21.47;57.09
18275;BME280;19470;49.322;7.218;2023-11-19T12:28:29;98456.44;;;21.36;57.45
18275;BME280;19470;49.322;7.218;2023-11-19T12:31:07;98414.56;;;23.01;53.43
18275;BME280;19470;49.322;7.218;2023-11-19T12:33:36;98421.47;;;23.31;51.93
18275;BME280;19470;49.322;7.218;2023-11-19T12:36:05;98423.75;;;23.41;52.13
18275;BME280;19470;49.322;7.218;2023-11-19T12:38:31;98407.44;;;23.83;50.28
18275;BME280;19470;49.322;7.218;2023-11-19T12:41:04;98432.34;;;22.13;54.36
18275;BME280;19470;49.322;7.218;2023-11-19T12:43:32;98400.31;;;21.47;54.69
18275;BME280;19470;49.322;7.218;2023-11-19T12:45:59;98398.56;;;22.07;53.15
18275;BME280;19470;49.322;7.218;2023-11-19T12:48:26;98397.53;;;22.79;51.67
18275;BME280;19470;49.322;7.218;2023-11-19T12:50:54;98396.00;;;23.32;51.15
18275;BME280;19470;49.322;7.218;2023-11-19T12:53:23;98398.19;;;22.76;51.68
18275;BME280;19470;49.322;7.218;2023-11-19T12:55:50;98419.72;;;21.87;53.81
18275;BME280;19470;49.322;7.218;2023-11-19T12:58:30;98394.75;;;22.67;54.71
18275;BME280;19470;49.322;7.218;2023-11-19T13:01:00;98409.81;;;21.62;53.85
18275;BME280;19470;49.322;7.218;2023-11-19T13:03:30;98400.59;;;20.10;58.83